KHOU

William P Hobby Airport

Houston, Texas, USA
KHOU 210304Z 2103/2124 10012KT P6SM BKN190 OVC220 FM210700 11008KT P6SM BKN025 FM210900 11007KT P6SM SCT008 BKN015 FM211100 10008KT 6SM -DZ BR SCT008 OVC015 FM211600 14012KT P6SM BKN015 OVC025 FM212100 13009KT P6SM VCTS BKN025CB BKN040
Issued Valid From Valid To
Apr-21 @ 03:04 UTC
(46 minutes ago)
Apr-21 @ 03:00 UTC
(50 minutes ago)
Apr-22 @ 00:00 UTC
(in 20 hours)
Apr-21 @ 03:00 to Apr-21 @ 07:00
KHOU 210304Z 2103/2124 10012KT P6SM BKN190 OVC220
Wind Visibility Clouds
100° at 12 knots Greater than 6 miles
  • Broken at 19,000' AGL
  • Overcast at 22,000' AGL
From Apr-21 @ 07:00 to Apr-21 @ 09:00
FM210700 11008KT P6SM BKN025
Wind Visibility Clouds
110° at 8 knots Greater than 6 miles
  • Broken at 2,500' AGL
From Apr-21 @ 09:00 to Apr-21 @ 11:00
FM210900 11007KT P6SM SCT008 BKN015
Wind Visibility Clouds
110° at 7 knots Greater than 6 miles
  • Scattered at 800' AGL
  • Broken at 1,500' AGL
From Apr-21 @ 11:00 to Apr-21 @ 16:00
FM211100 10008KT 6SM -DZ BR SCT008 OVC015
Wind Visibility Clouds Conditions
100° at 8 knots 6 miles
  • Scattered at 800' AGL
  • Overcast at 1,500' AGL
  • Light Drizzle
  • Mist
From Apr-21 @ 16:00 to Apr-21 @ 21:00
FM211600 14012KT P6SM BKN015 OVC025
Wind Visibility Clouds
140° at 12 knots Greater than 6 miles
  • Broken at 1,500' AGL
  • Overcast at 2,500' AGL
From Apr-21 @ 21:00 to Apr-22 @ 00:00
FM212100 13009KT P6SM VCTS BKN025CB BKN040
Wind Visibility Clouds Conditions
130° at 9 knots Greater than 6 miles
  • Broken at 2,500' AGL
  • Broken at 4,000' AGL
  • Area Thunderstorm
KHOU 210304Z 2103/2124 10012KT P6SM BKN190 OVC220 FM210700 11008KT P6SM BKN025 FM210900 11007KT P6SM SCT008 BKN015 FM211100 10008KT 6SM -DZ BR SCT008 OVC015 FM211600 14012KT P6SM BKN015 OVC025 FM212100 13009KT P6SM VCTS BKN025CB BKN040
Issued Apr-21 @ 03:04 UTC
(46 minutes ago)
Valid From Apr-21 @ 03:00 UTC
(50 minutes ago)
Valid To Apr-22 @ 00:00 UTC
(in 20 hours)
Apr-21 @ 03:00 - Apr-21 @ 07:00
Wind Visibility
100° at 12 knots Greater than 6 miles
Clouds
  • Broken at 19,000' AGL
  • Overcast at 22,000' AGL
From Apr-21 @ 07:00 - Apr-21 @ 09:00
Wind Visibility
110° at 8 knots Greater than 6 miles
Clouds
  • Broken at 2,500' AGL
From Apr-21 @ 09:00 - Apr-21 @ 11:00
Wind Visibility
110° at 7 knots Greater than 6 miles
Clouds
  • Scattered at 800' AGL
  • Broken at 1,500' AGL
From Apr-21 @ 11:00 - Apr-21 @ 16:00
Wind Visibility
100° at 8 knots 6 miles
Clouds
  • Scattered at 800' AGL
  • Overcast at 1,500' AGL
Conditions
  • Light Drizzle
  • Mist
From Apr-21 @ 16:00 - Apr-21 @ 21:00
Wind Visibility
140° at 12 knots Greater than 6 miles
Clouds
  • Broken at 1,500' AGL
  • Overcast at 2,500' AGL
From Apr-21 @ 21:00 - Apr-22 @ 00:00
Wind Visibility
130° at 9 knots Greater than 6 miles
Clouds
  • Broken at 2,500' AGL
  • Broken at 4,000' AGL
Conditions
  • Area Thunderstorm